sensor_id;sensor_type;location;lat;lon;timestamp;pressure;altitude;pressure_sealevel;temperature;humidity
74529;BME280;63009;52.584;5.932;2022-09-09T00:06:30;100858.47;;;14.97;88.24
74529;BME280;63009;52.584;5.932;2022-09-09T00:09:17;100866.22;;;15.00;88.09
74529;BME280;63009;52.584;5.932;2022-09-09T00:11:47;100861.28;;;15.06;88.16
74529;BME280;63009;52.584;5.932;2022-09-09T00:14:37;100863.44;;;15.01;88.70
74529;BME280;63009;52.584;5.932;2022-09-09T00:17:18;100860.31;;;15.07;88.43
74529;BME280;63009;52.584;5.932;2022-09-09T00:19:56;100857.44;;;15.22;88.42
74529;BME280;63009;52.584;5.932;2022-09-09T00:22:28;100857.44;;;15.22;88.44
74529;BME280;63009;52.584;5.932;2022-09-09T00:25:02;100865.19;;;15.25;88.72
74529;BME280;63009;52.584;5.932;2022-09-09T00:27:48;100862.63;;;15.23;88.80
74529;BME280;63009;52.584;5.932;2022-09-09T00:30:20;100857.66;;;15.19;89.04
74529;BME280;63009;52.584;5.932;2022-09-09T00:32:49;100858.16;;;15.24;89.17
74529;BME280;63009;52.584;5.932;2022-09-09T00:35:31;100870.00;;;15.31;88.67
74529;BME280;63009;52.584;5.932;2022-09-09T00:38:02;100861.78;;;15.34;88.28
74529;BME280;63009;52.584;5.932;2022-09-09T00:40:33;100859.25;;;15.43;88.14
74529;BME280;63009;52.584;5.932;2022-09-09T00:57:29;100857.69;;;15.41;87.74
74529;BME280;63009;52.584;5.932;2022-09-09T01:13:52;100842.66;;;15.40;86.67
74529;BME280;63009;52.584;5.932;2022-09-09T01:16:18;100842.66;;;15.40;86.78
74529;BME280;63009;52.584;5.932;2022-09-09T01:18:46;100840.13;;;15.38;86.77
74529;BME280;63009;52.584;5.932;2022-09-09T01:21:36;100845.81;;;15.45;85.79
74529;BME280;63009;52.584;5.932;2022-09-09T01:24:19;100853.81;;;15.45;85.64
74529;BME280;63009;52.584;5.932;2022-09-09T01:26:48;100852.47;;;15.39;85.67
74529;BME280;63009;52.584;5.932;2022-09-09T01:29:17;100843.13;;;15.34;86.28
74529;BME280;63009;52.584;5.932;2022-09-09T01:32:37;100841.22;;;15.36;85.97
74529;BME280;63009;52.584;5.932;2022-09-09T01:34:49;100849.09;;;15.37;86.13
74529;BME280;63009;52.584;5.932;2022-09-09T01:37:15;100844.84;;;15.35;86.46
74529;BME280;63009;52.584;5.932;2022-09-09T01:39:43;100839.41;;;15.36;86.47
74529;BME280;63009;52.584;5.932;2022-09-09T01:42:12;100840.13;;;15.38;85.86
74529;BME280;63009;52.584;5.932;2022-09-09T01:44:39;100842.28;;;15.33;86.45
74529;BME280;63009;52.584;5.932;2022-09-09T01:47:04;100850.91;;;15.37;86.38
74529;BME280;63009;52.584;5.932;2022-09-09T01:49:31;100843.88;;;15.36;86.50
74529;BME280;63009;52.584;5.932;2022-09-09T01:51:58;100850.28;;;15.33;86.30
74529;BME280;63009;52.584;5.932;2022-09-09T01:54:26;100854.03;;;15.31;86.70
74529;BME280;63009;52.584;5.932;2022-09-09T02:02:09;100840.69;;;15.20;87.51
74529;BME280;63009;52.584;5.932;2022-09-09T02:04:47;100844.34;;;15.19;87.71
74529;BME280;63009;52.584;5.932;2022-09-09T02:07:35;100847.13;;;15.17;87.53
74529;BME280;63009;52.584;5.932;2022-09-09T02:10:21;100848.44;;;15.11;87.87
74529;BME280;63009;52.584;5.932;2022-09-09T02:12:51;100848.81;;;15.18;87.70
74529;BME280;63009;52.584;5.932;2022-09-09T02:18:17;100849.66;;;15.19;87.62
74529;BME280;63009;52.584;5.932;2022-09-09T02:20:47;100849.44;;;15.22;87.53
74529;BME280;63009;52.584;5.932;2022-09-09T02:23:14;100845.19;;;15.19;87.76
74529;BME280;63009;52.584;5.932;2022-09-09T02:25:40;100845.19;;;15.19;87.97
74529;BME280;63009;52.584;5.932;2022-09-09T02:28:08;100832.34;;;15.13;88.02
74529;BME280;63009;52.584;5.932;2022-09-09T02:30:37;100833.81;;;15.17;88.15
74529;BME280;63009;52.584;5.932;2022-09-09T02:33:03;100836.72;;;15.14;88.41
74529;BME280;63009;52.584;5.932;2022-09-09T02:35:32;100838.16;;;15.18;88.41
74529;BME280;63009;52.584;5.932;2022-09-09T02:38:00;100831.63;;;15.11;88.34
74529;BME280;63009;52.584;5.932;2022-09-09T02:40:27;100840.47;;;15.11;88.45
74529;BME280;63009;52.584;5.932;2022-09-09T02:42:54;100843.13;;;15.11;88.25
74529;BME280;63009;52.584;5.932;2022-09-09T02:45:23;100848.56;;;15.10;88.65
74529;BME280;63009;52.584;5.932;2022-09-09T02:48:03;100844.34;;;15.07;89.22
74529;BME280;63009;52.584;5.932;2022-09-09T02:50:44;100843.81;;;15.02;88.56
74529;BME280;63009;52.584;5.932;2022-09-09T02:53:22;100835.59;;;14.94;88.79
74529;BME280;63009;52.584;5.932;2022-09-09T02:56:04;100835.59;;;14.94;88.62
74529;BME280;63009;52.584;5.932;2022-09-09T02:58:32;100846.97;;;14.96;88.97
74529;BME280;63009;52.584;5.932;2022-09-09T03:00:58;100840.06;;;14.94;88.68
74529;BME280;63009;52.584;5.932;2022-09-09T03:03:26;100841.13;;;14.91;88.42
74529;BME280;63009;52.584;5.932;2022-09-09T03:05:52;100838.84;;;14.87;88.44
74529;BME280;63009;52.584;5.932;2022-09-09T03:08:17;100831.53;;;14.77;88.81
74529;BME280;63009;52.584;5.932;2022-09-09T03:10:43;100832.28;;;14.79;88.61
74529;BME280;63009;52.584;5.932;2022-09-09T03:13:08;100834.59;;;14.84;88.68
74529;BME280;63009;52.584;5.932;2022-09-09T03:15:34;100842.19;;;14.77;88.43
74529;BME280;63009;52.584;5.932;2022-09-09T03:18:00;100841.56;;;14.74;88.71
74529;BME280;63009;52.584;5.932;2022-09-09T03:20:28;100822.59;;;14.67;88.79
74529;BME280;63009;52.584;5.932;2022-09-09T03:22:54;100834.91;;;14.68;88.61
74529;BME280;63009;52.584;5.932;2022-09-09T03:25:20;100828.22;;;14.63;88.65
74529;BME280;63009;52.584;5.932;2022-09-09T03:27:45;100832.81;;;14.61;88.76
74529;BME280;63009;52.584;5.932;2022-09-09T03:30:11;100829.69;;;14.55;88.96
74529;BME280;63009;52.584;5.932;2022-09-09T03:32:36;100825.31;;;14.54;88.83
74529;BME280;63009;52.584;5.932;2022-09-09T03:35:02;100830.63;;;14.54;88.67
74529;BME280;63009;52.584;5.932;2022-09-09T03:37:28;100836.06;;;14.53;88.96
74529;BME280;63009;52.584;5.932;2022-09-09T03:39:53;100837.78;;;14.54;88.93
74529;BME280;63009;52.584;5.932;2022-09-09T03:42:21;100827.03;;;14.43;89.17
74529;BME280;63009;52.584;5.932;2022-09-09T03:44:46;100834.94;;;14.44;89.11
74529;BME280;63009;52.584;5.932;2022-09-09T03:47:15;100837.59;;;14.44;88.99
74529;BME280;63009;52.584;5.932;2022-09-09T03:49:40;100836.84;;;14.42;89.52
74529;BME280;63009;52.584;5.932;2022-09-09T03:52:05;100846.75;;;14.40;88.87
74529;BME280;63009;52.584;5.932;2022-09-09T03:54:31;100841.53;;;14.39;89.09
74529;BME280;63009;52.584;5.932;2022-09-09T03:56:56;100842.81;;;14.33;89.33
74529;BME280;63009;52.584;5.932;2022-09-09T03:59:21;100839.66;;;14.28;89.32
74529;BME280;63009;52.584;5.932;2022-09-09T04:01:48;100848.44;;;14.17;89.78
74529;BME280;63009;52.584;5.932;2022-09-09T04:04:13;100841.75;;;14.12;89.93
74529;BME280;63009;52.584;5.932;2022-09-09T04:06:38;100841.75;;;14.12;89.67
74529;BME280;63009;52.584;5.932;2022-09-09T04:09:04;100855.91;;;14.12;89.77
74529;BME280;63009;52.584;5.932;2022-09-09T04:11:29;100852.09;;;14.04;90.06
74529;BME280;63009;52.584;5.932;2022-09-09T04:13:55;100842.16;;;13.94;90.48
74529;BME280;63009;52.584;5.932;2022-09-09T04:16:20;100839.91;;;13.88;90.74
74529;BME280;63009;52.584;5.932;2022-09-09T04:18:46;100832.28;;;13.84;90.69
74529;BME280;63009;52.584;5.932;2022-09-09T04:21:12;100836.75;;;13.83;90.81
74529;BME280;63009;52.584;5.932;2022-09-09T04:23:38;100836.88;;;13.82;90.97
74529;BME280;63009;52.584;5.932;2022-09-09T04:26:03;100840.25;;;13.84;90.66
74529;BME280;63009;52.584;5.932;2022-09-09T04:28:33;100842.81;;;13.85;90.99
74529;BME280;63009;52.584;5.932;2022-09-09T04:31:06;100833.25;;;13.83;91.09
74529;BME280;63009;52.584;5.932;2022-09-09T04:33:32;100834.22;;;13.82;90.76
74529;BME280;63009;52.584;5.932;2022-09-09T04:35:58;100835.78;;;13.84;90.93
74529;BME280;63009;52.584;5.932;2022-09-09T04:38:23;100819.53;;;13.76;90.94
74529;BME280;63009;52.584;5.932;2022-09-09T04:40:50;100829.94;;;13.79;91.44
74529;BME280;63009;52.584;5.932;2022-09-09T04:43:16;100831.00;;;13.77;91.59
74529;BME280;63009;52.584;5.932;2022-09-09T04:45:43;100821.69;;;13.71;91.64
74529;BME280;63009;52.584;5.932;2022-09-09T04:48:09;100820.72;;;13.72;91.54
74529;BME280;63009;52.584;5.932;2022-09-09T04:50:37;100826.38;;;13.68;91.80
74529;BME280;63009;52.584;5.932;2022-09-09T04:53:04;100831.47;;;13.71;91.91
74529;BME280;63009;52.584;5.932;2022-09-09T04:55:30;100834.13;;;13.71;91.93
74529;BME280;63009;52.584;5.932;2022-09-09T04:57:56;100824.47;;;13.70;91.97
74529;BME280;63009;52.584;5.932;2022-09-09T05:00:22;100826.03;;;13.72;91.96
74529;BME280;63009;52.584;5.932;2022-09-09T05:02:48;100821.56;;;13.73;91.68
74529;BME280;63009;52.584;5.932;2022-09-09T05:05:13;100836.22;;;13.78;91.32
74529;BME280;63009;52.584;5.932;2022-09-09T05:07:38;100834.63;;;13.76;91.46
74529;BME280;63009;52.584;5.932;2022-09-09T05:10:04;100832.31;;;13.71;91.62
74529;BME280;63009;52.584;5.932;2022-09-09T05:12:30;100839.94;;;13.76;91.28
74529;BME280;63009;52.584;5.932;2022-09-09T05:14:56;100833.56;;;13.78;91.32
74529;BME280;63009;52.584;5.932;2022-09-09T05:17:22;100824.13;;;13.74;91.27
74529;BME280;63009;52.584;5.932;2022-09-09T05:19:47;100829.00;;;13.80;91.04
74529;BME280;63009;52.584;5.932;2022-09-09T05:22:12;100811.81;;;13.73;91.28
74529;BME280;63009;52.584;5.932;2022-09-09T05:24:38;100829.09;;;13.79;90.99
74529;BME280;63009;52.584;5.932;2022-09-09T05:27:04;100833.38;;;13.81;91.15
74529;BME280;63009;52.584;5.932;2022-09-09T05:29:31;100821.88;;;13.81;90.92
74529;BME280;63009;52.584;5.932;2022-09-09T05:31:58;100818.69;;;13.76;91.34
74529;BME280;63009;52.584;5.932;2022-09-09T05:34:23;100831.31;;;13.85;91.03
74529;BME280;63009;52.584;5.932;2022-09-09T05:36:49;100819.13;;;13.82;90.98
74529;BME280;63009;52.584;5.932;2022-09-09T05:39:14;100807.75;;;13.80;90.89
74529;BME280;63009;52.584;5.932;2022-09-09T05:41:39;100828.91;;;13.82;90.87
74529;BME280;63009;52.584;5.932;2022-09-09T05:44:05;100824.00;;;13.76;91.16
74529;BME280;63009;52.584;5.932;2022-09-09T05:46:31;100831.88;;;13.77;91.20
74529;BME280;63009;52.584;5.932;2022-09-09T05:48:56;100817.13;;;13.73;91.28
74529;BME280;63009;52.584;5.932;2022-09-09T05:51:25;100840.50;;;13.81;91.29
74529;BME280;63009;52.584;5.932;2022-09-09T05:53:51;100837.59;;;13.84;91.00
74529;BME280;63009;52.584;5.932;2022-09-09T05:56:22;100823.34;;;13.85;91.02
74529;BME280;63009;52.584;5.932;2022-09-09T05:58:49;100838.22;;;13.87;90.70
74529;BME280;63009;52.584;5.932;2022-09-09T06:01:18;100843.31;;;13.90;90.69
74529;BME280;63009;52.584;5.932;2022-09-09T06:03:45;100836.28;;;13.89;90.55
74529;BME280;63009;52.584;5.932;2022-09-09T06:06:16;100844.16;;;13.91;90.90
74529;BME280;63009;52.584;5.932;2022-09-09T06:08:43;100837.25;;;13.88;90.74
74529;BME280;63009;52.584;5.932;2022-09-09T06:13:37;100837.69;;;13.95;90.70
74529;BME280;63009;52.584;5.932;2022-09-09T06:16:05;100843.13;;;13.93;90.79
74529;BME280;63009;52.584;5.932;2022-09-09T06:18:32;100833.41;;;13.92;90.68
74529;BME280;63009;52.584;5.932;2022-09-09T06:21:02;100841.19;;;13.95;90.91
74529;BME280;63009;52.584;5.932;2022-09-09T06:23:32;100835.88;;;13.95;90.68
74529;BME280;63009;52.584;5.932;2022-09-09T06:26:05;100840.72;;;14.02;90.74
74529;BME280;63009;52.584;5.932;2022-09-09T06:28:32;100824.34;;;14.08;90.84
74529;BME280;63009;52.584;5.932;2022-09-09T06:30:59;100827.75;;;14.10;90.82
74529;BME280;63009;52.584;5.932;2022-09-09T06:33:24;100824.50;;;14.17;91.21
74529;BME280;63009;52.584;5.932;2022-09-09T06:35:54;100820.59;;;14.34;90.17
74529;BME280;63009;52.584;5.932;2022-09-09T06:38:19;100828.41;;;14.48;89.75
74529;BME280;63009;52.584;5.932;2022-09-09T06:40:55;100828.59;;;14.58;89.13
74529;BME280;63009;52.584;5.932;2022-09-09T06:43:22;100823.44;;;14.68;88.92
74529;BME280;63009;52.584;5.932;2022-09-09T06:45:59;100822.38;;;14.81;88.09
74529;BME280;63009;52.584;5.932;2022-09-09T06:48:26;100832.53;;;14.88;87.55
74529;BME280;63009;52.584;5.932;2022-09-09T06:51:21;100825.28;;;14.90;87.92
74529;BME280;63009;52.584;5.932;2022-09-09T06:53:55;100823.00;;;14.85;87.91
74529;BME280;63009;52.584;5.932;2022-09-09T06:56:28;100824.31;;;14.91;87.49
74529;BME280;63009;52.584;5.932;2022-09-09T06:58:55;100820.69;;;14.92;87.68
74529;BME280;63009;52.584;5.932;2022-09-09T07:01:26;100810.03;;;14.92;87.50
74529;BME280;63009;52.584;5.932;2022-09-09T07:03:53;100819.75;;;15.04;87.20
74529;BME280;63009;52.584;5.932;2022-09-09T07:06:24;100821.00;;;15.22;86.53
74529;BME280;63009;52.584;5.932;2022-09-09T07:08:55;100820.28;;;15.42;85.86
74529;BME280;63009;52.584;5.932;2022-09-09T07:11:22;100820.31;;;15.65;85.03
74529;BME280;63009;52.584;5.932;2022-09-09T07:13:48;100803.44;;;15.76;84.58
74529;BME280;63009;52.584;5.932;2022-09-09T07:16:16;100819.38;;;16.09;83.76
74529;BME280;63009;52.584;5.932;2022-09-09T07:18:42;100822.75;;;16.43;82.55
74529;BME280;63009;52.584;5.932;2022-09-09T07:21:11;100817.47;;;16.64;81.41
74529;BME280;63009;52.584;5.932;2022-09-09T07:23:37;100824.66;;;16.84;80.54
74529;BME280;63009;52.584;5.932;2022-09-09T07:26:07;100813.13;;;17.05;80.18
74529;BME280;63009;52.584;5.932;2022-09-09T07:28:33;100815.50;;;17.29;78.87
74529;BME280;63009;52.584;5.932;2022-09-09T07:31:01;100808.41;;;17.48;78.05
74529;BME280;63009;52.584;5.932;2022-09-09T07:33:28;100818.13;;;17.49;78.04
74529;BME280;63009;52.584;5.932;2022-09-09T07:36:05;100819.81;;;17.81;77.14
74529;BME280;63009;52.584;5.932;2022-09-09T07:38:37;100818.16;;;17.99;75.91
74529;BME280;63009;52.584;5.932;2022-09-09T07:41:07;100816.38;;;18.19;75.54
74529;BME280;63009;52.584;5.932;2022-09-09T07:43:37;100822.28;;;18.32;75.20
74529;BME280;63009;52.584;5.932;2022-09-09T07:46:02;100819.88;;;18.29;75.13
74529;BME280;63009;52.584;5.932;2022-09-09T07:48:28;100814.22;;;18.13;75.81
74529;BME280;63009;52.584;5.932;2022-09-09T07:51:06;100815.78;;;18.25;75.79
74529;BME280;63009;52.584;5.932;2022-09-09T07:53:33;100828.63;;;18.41;75.03
74529;BME280;63009;52.584;5.932;2022-09-09T07:56:06;100817.78;;;18.52;74.50
74529;BME280;63009;52.584;5.932;2022-09-09T07:58:33;100822.16;;;18.53;74.88
74529;BME280;63009;52.584;5.932;2022-09-09T08:01:07;100819.34;;;18.45;75.44
74529;BME280;63009;52.584;5.932;2022-09-09T08:03:32;100817.38;;;18.47;74.75
74529;BME280;63009;52.584;5.932;2022-09-09T08:06:06;100816.78;;;18.44;75.34
74529;BME280;63009;52.584;5.932;2022-09-09T08:08:33;100816.78;;;18.53;75.57
74529;BME280;63009;52.584;5.932;2022-09-09T08:11:13;100824.81;;;18.53;74.94
74529;BME280;63009;52.584;5.932;2022-09-09T08:13:43;100816.94;;;18.42;75.12
74529;BME280;63009;52.584;5.932;2022-09-09T08:16:11;100824.13;;;18.51;74.36
74529;BME280;63009;52.584;5.932;2022-09-09T08:18:36;100824.97;;;18.52;73.95
74529;BME280;63009;52.584;5.932;2022-09-09T08:21:14;100819.47;;;18.63;73.54
74529;BME280;63009;52.584;5.932;2022-09-09T08:23:40;100821.31;;;18.91;72.91
74529;BME280;63009;52.584;5.932;2022-09-09T08:26:15;100828.19;;;18.94;72.23
74529;BME280;63009;52.584;5.932;2022-09-09T08:28:42;100826.38;;;18.85;73.55
74529;BME280;63009;52.584;5.932;2022-09-09T08:31:12;100840.78;;;18.64;73.16
74529;BME280;63009;52.584;5.932;2022-09-09T08:33:38;100836.22;;;18.55;73.81
74529;BME280;63009;52.584;5.932;2022-09-09T08:36:05;100833.13;;;18.50;73.62
74529;BME280;63009;52.584;5.932;2022-09-09T08:38:32;100832.28;;;18.30;73.76
74529;BME280;63009;52.584;5.932;2022-09-09T08:41:28;100847.88;;;18.16;75.44
74529;BME280;63009;52.584;5.932;2022-09-09T08:44:03;100836.94;;;18.19;75.24
74529;BME280;63009;52.584;5.932;2022-09-09T08:49:02;100842.53;;;18.16;74.42
74529;BME280;63009;52.584;5.932;2022-09-09T08:51:31;100840.84;;;18.05;75.08
74529;BME280;63009;52.584;5.932;2022-09-09T08:54:00;100860.56;;;18.14;74.54
74529;BME280;63009;52.584;5.932;2022-09-09T08:56:27;100844.34;;;18.15;74.35
74529;BME280;63009;52.584;5.932;2022-09-09T08:58:56;100854.91;;;18.07;73.96
74529;BME280;63009;52.584;5.932;2022-09-09T09:01:38;100852.09;;;18.08;74.62
74529;BME280;63009;52.584;5.932;2022-09-09T09:06:53;100843.50;;;18.15;74.23
74529;BME280;63009;52.584;5.932;2022-09-09T09:09:32;100860.72;;;18.22;74.34
74529;BME280;63009;52.584;5.932;2022-09-09T09:12:12;100850.44;;;18.17;76.29
74529;BME280;63009;52.584;5.932;2022-09-09T09:14:40;100851.44;;;18.16;73.91
74529;BME280;63009;52.584;5.932;2022-09-09T09:17:11;100857.72;;;18.15;74.66
74529;BME280;63009;52.584;5.932;2022-09-09T09:19:39;100866.63;;;18.25;74.46
74529;BME280;63009;52.584;5.932;2022-09-09T09:24:55;100865.66;;;18.36;73.92
74529;BME280;63009;52.584;5.932;2022-09-09T09:27:36;100865.69;;;18.46;73.54
74529;BME280;63009;52.584;5.932;2022-09-09T09:30:25;100872.59;;;18.48;72.86
74529;BME280;63009;52.584;5.932;2022-09-09T09:35:25;100874.38;;;18.19;72.76
74529;BME280;63009;52.584;5.932;2022-09-09T09:37:51;100875.19;;;18.09;72.61
74529;BME280;63009;52.584;5.932;2022-09-09T09:40:19;100865.06;;;18.03;73.24
74529;BME280;63009;52.584;5.932;2022-09-09T09:42:53;100882.75;;;17.95;73.83
74529;BME280;63009;52.584;5.932;2022-09-09T09:45:27;100869.25;;;17.96;73.36
74529;BME280;63009;52.584;5.932;2022-09-09T09:48:05;100871.50;;;18.01;74.48
74529;BME280;63009;52.584;5.932;2022-09-09T09:50:31;100872.09;;;18.04;74.12
74529;BME280;63009;52.584;5.932;2022-09-09T09:53:00;100879.84;;;18.07;73.75
74529;BME280;63009;52.584;5.932;2022-09-09T09:55:28;100873.50;;;18.08;73.69
74529;BME280;63009;52.584;5.932;2022-09-09T09:58:01;100875.06;;;18.11;74.21
74529;BME280;63009;52.584;5.932;2022-09-09T10:00:27;100861.66;;;18.01;74.57
74529;BME280;63009;52.584;5.932;2022-09-09T10:02:52;100872.22;;;18.13;74.17
74529;BME280;63009;52.584;5.932;2022-09-09T10:05:23;100873.94;;;18.14;73.70
74529;BME280;63009;52.584;5.932;2022-09-09T10:08:12;100867.88;;;18.12;73.33
74529;BME280;63009;52.584;5.932;2022-09-09T10:14:06;100883.34;;;18.08;73.14
74529;BME280;63009;52.584;5.932;2022-09-09T10:16:59;100878.28;;;18.05;73.73
74529;BME280;63009;52.584;5.932;2022-09-09T10:19:32;100874.63;;;18.06;74.04
74529;BME280;63009;52.584;5.932;2022-09-09T10:24:44;100869.09;;;17.88;74.76
74529;BME280;63009;52.584;5.932;2022-09-09T10:30:16;100872.84;;;17.76;75.27
74529;BME280;63009;52.584;5.932;2022-09-09T10:44:14;100873.00;;;18.34;72.42
74529;BME280;63009;52.584;5.932;2022-09-09T10:50:07;100859.75;;;18.42;71.74
74529;BME280;63009;52.584;5.932;2022-09-09T10:55:19;100857.22;;;18.50;71.63
74529;BME280;63009;52.584;5.932;2022-09-09T10:57:46;100860.19;;;18.57;72.17
74529;BME280;63009;52.584;5.932;2022-09-09T11:00:19;100844.69;;;18.60;71.06
74529;BME280;63009;52.584;5.932;2022-09-09T11:02:48;100855.16;;;18.63;70.24
74529;BME280;63009;52.584;5.932;2022-09-09T11:06:05;100865.03;;;18.73;70.08
74529;BME280;63009;52.584;5.932;2022-09-09T11:19:05;100855.84;;;18.75;68.50
74529;BME280;63009;52.584;5.932;2022-09-09T11:21:48;100852.88;;;18.88;69.59
74529;BME280;63009;52.584;5.932;2022-09-09T11:24:25;100857.41;;;18.87;68.67
74529;BME280;63009;52.584;5.932;2022-09-09T11:27:00;100848.94;;;18.82;68.75
74529;BME280;63009;52.584;5.932;2022-09-09T11:35:19;100865.03;;;18.73;69.52
74529;BME280;63009;52.584;5.932;2022-09-09T11:40:36;100863.72;;;18.48;71.42
74529;BME280;63009;52.584;5.932;2022-09-09T11:43:05;100867.34;;;18.37;74.63
74529;BME280;63009;52.584;5.932;2022-09-09T11:45:34;100875.50;;;18.26;75.94
74529;BME280;63009;52.584;5.932;2022-09-09T11:48:01;100850.00;;;18.12;76.54
74529;BME280;63009;52.584;5.932;2022-09-09T11:50:30;100858.47;;;18.17;77.48
74529;BME280;63009;52.584;5.932;2022-09-09T11:55:31;100855.09;;;18.34;75.87
74529;BME280;63009;52.584;5.932;2022-09-09T11:58:05;100849.03;;;18.42;76.89
74529;BME280;63009;52.584;5.932;2022-09-09T12:00:42;100855.81;;;18.56;73.56
74529;BME280;63009;52.584;5.932;2022-09-09T12:03:41;100842.88;;;18.71;73.39
74529;BME280;63009;52.584;5.932;2022-09-09T12:06:12;100845.84;;;18.77;72.86
74529;BME280;63009;52.584;5.932;2022-09-09T12:08:42;100855.41;;;18.51;73.61
74529;BME280;63009;52.584;5.932;2022-09-09T12:11:09;100859.59;;;18.44;74.83
74529;BME280;63009;52.584;5.932;2022-09-09T12:13:34;100862.16;;;18.35;76.18
74529;BME280;63009;52.584;5.932;2022-09-09T12:16:00;100864.53;;;18.29;76.75
74529;BME280;63009;52.584;5.932;2022-09-09T12:18:38;100860.56;;;18.23;76.97
74529;BME280;63009;52.584;5.932;2022-09-09T12:21:29;100848.91;;;18.34;76.61
74529;BME280;63009;52.584;5.932;2022-09-09T12:24:03;100862.16;;;18.45;75.83
74529;BME280;63009;52.584;5.932;2022-09-09T12:26:56;100863.13;;;18.54;75.60
74529;BME280;63009;52.584;5.932;2022-09-09T12:29:30;100843.88;;;18.69;75.89
74529;BME280;63009;52.584;5.932;2022-09-09T12:32:07;100846.25;;;18.82;73.91
74529;BME280;63009;52.584;5.932;2022-09-09T12:34:46;100851.16;;;18.96;74.65
74529;BME280;63009;52.584;5.932;2022-09-09T12:37:35;100851.56;;;19.11;73.13
74529;BME280;63009;52.584;5.932;2022-09-09T12:40:20;100832.19;;;19.27;74.09
74529;BME280;63009;52.584;5.932;2022-09-09T12:42:46;100837.13;;;19.32;73.28
74529;BME280;63009;52.584;5.932;2022-09-09T12:45:21;100838.00;;;19.22;72.51
74529;BME280;63009;52.584;5.932;2022-09-09T12:50:37;100840.28;;;19.08;72.86
74529;BME280;63009;52.584;5.932;2022-09-09T12:53:10;100842.53;;;19.12;73.02
74529;BME280;63009;52.584;5.932;2022-09-09T12:55:58;100831.50;;;19.25;72.67
74529;BME280;63009;52.584;5.932;2022-09-09T12:58:25;100823.16;;;19.28;71.92
74529;BME280;63009;52.584;5.932;2022-09-09T13:00:55;100822.06;;;19.31;71.76
74529;BME280;63009;52.584;5.932;2022-09-09T13:03:24;100824.81;;;19.39;70.36
74529;BME280;63009;52.584;5.932;2022-09-09T13:05:50;100820.47;;;19.28;70.50
74529;BME280;63009;52.584;5.932;2022-09-09T13:08:17;100816.53;;;19.32;70.24
74529;BME280;63009;52.584;5.932;2022-09-09T13:13:23;100807.19;;;19.46;69.26
74529;BME280;63009;52.584;5.932;2022-09-09T13:15:52;100805.50;;;19.45;69.34
74529;BME280;63009;52.584;5.932;2022-09-09T13:18:21;100813.44;;;19.27;70.85
74529;BME280;63009;52.584;5.932;2022-09-09T13:20:48;100809.97;;;19.17;72.15
74529;BME280;63009;52.584;5.932;2022-09-09T13:23:15;100798.81;;;19.12;73.41
74529;BME280;63009;52.584;5.932;2022-09-09T13:25:54;100812.41;;;19.01;73.77
74529;BME280;63009;52.584;5.932;2022-09-09T13:28:22;100817.50;;;18.84;73.68
74529;BME280;63009;52.584;5.932;2022-09-09T13:30:57;100823.44;;;18.88;73.70
74529;BME280;63009;52.584;5.932;2022-09-09T13:33:29;100809.34;;;18.76;73.68
74529;BME280;63009;52.584;5.932;2022-09-09T13:35:57;100815.41;;;18.68;73.72
74529;BME280;63009;52.584;5.932;2022-09-09T13:38:24;100815.25;;;18.70;74.56
74529;BME280;63009;52.584;5.932;2022-09-09T13:41:09;100802.56;;;18.62;74.84
74529;BME280;63009;52.584;5.932;2022-09-09T13:43:43;100809.22;;;18.68;75.79
74529;BME280;63009;52.584;5.932;2022-09-09T13:46:37;100810.59;;;18.62;75.43
74529;BME280;63009;52.584;5.932;2022-09-09T13:51:43;100808.06;;;18.51;74.02
74529;BME280;63009;52.584;5.932;2022-09-09T13:54:13;100812.31;;;18.44;74.70
74529;BME280;63009;52.584;5.932;2022-09-09T13:56:40;100817.66;;;18.44;75.20
74529;BME280;63009;52.584;5.932;2022-09-09T13:59:11;100816.66;;;18.45;76.03
74529;BME280;63009;52.584;5.932;2022-09-09T14:01:36;100819.03;;;18.38;75.49
74529;BME280;63009;52.584;5.932;2022-09-09T14:04:03;100813.84;;;18.37;74.44
74529;BME280;63009;52.584;5.932;2022-09-09T14:06:29;100818.34;;;18.17;77.63
74529;BME280;63009;52.584;5.932;2022-09-09T14:08:55;100820.28;;;18.05;78.43
74529;BME280;63009;52.584;5.932;2022-09-09T14:11:21;100810.00;;;18.10;78.32
74529;BME280;63009;52.584;5.932;2022-09-09T14:13:47;100803.97;;;18.18;79.11
74529;BME280;63009;52.584;5.932;2022-09-09T14:16:15;100804.56;;;18.31;79.33
74529;BME280;63009;52.584;5.932;2022-09-09T14:18:40;100809.47;;;18.46;77.30
74529;BME280;63009;52.584;5.932;2022-09-09T14:21:06;100807.81;;;18.45;77.48
74529;BME280;63009;52.584;5.932;2022-09-09T14:23:31;100807.22;;;18.41;78.25
74529;BME280;63009;52.584;5.932;2022-09-09T14:25:57;100816.53;;;18.47;77.04
74529;BME280;63009;52.584;5.932;2022-09-09T14:28:22;100811.72;;;18.50;76.51
74529;BME280;63009;52.584;5.932;2022-09-09T14:30:48;100806.53;;;18.58;76.49
74529;BME280;63009;52.584;5.932;2022-09-09T14:33:15;100804.09;;;18.55;75.57
74529;BME280;63009;52.584;5.932;2022-09-09T14:35:42;100802.31;;;18.65;76.28
74529;BME280;63009;52.584;5.932;2022-09-09T14:38:08;100797.94;;;18.74;75.34
74529;BME280;63009;52.584;5.932;2022-09-09T14:40:35;100792.84;;;18.90;75.17
74529;BME280;63009;52.584;5.932;2022-09-09T14:43:02;100786.03;;;18.96;74.83
74529;BME280;63009;52.584;5.932;2022-09-09T14:45:28;100794.22;;;19.04;74.74
74529;BME280;63009;52.584;5.932;2022-09-09T14:47:53;100797.56;;;19.16;72.61
74529;BME280;63009;52.584;5.932;2022-09-09T14:50:20;100790.47;;;19.24;72.81
74529;BME280;63009;52.584;5.932;2022-09-09T14:52:46;100798.94;;;19.30;71.48
74529;BME280;63009;52.584;5.932;2022-09-09T14:55:12;100802.84;;;19.35;71.80
74529;BME280;63009;52.584;5.932;2022-09-09T14:57:38;100799.31;;;19.35;71.73